Time;durP1;ratioP1;P1;durP2;ratioP2;P2;SDS_P1;SDS_P2;PMS_P1;PMS_P2;Temp;Humidity;BMP_temperature;BMP_pressure;BME280_temperature;BME280_humidity;BME280_pressure;Samples;Min_cycle;Max_cycle;Signal;HPM_P1;HPM_P2
2022/01/20 00:03:37;;;;;;;1.57;1.57;;;;;;;3.31;86.61;100640.97;5058452;28;20218;-73
2022/01/20 00:27:31;;;;;;;19.17;1.17;;;;;;;3.12;85.74;100651.34;5061835;28;20182;-73
2022/01/20 00:33:33;;;;;;;11.43;0.60;;;;;;;2.98;89.09;100640.97;5073501;28;20175;-74
2022/01/20 00:35:29;;;;;;;1.30;0.60;;;;;;;2.98;90.19;100650.97;5061998;28;20251;-73
2022/01/20 00:37:55;;;;;;;1.27;0.50;;;;;;;3.01;90.82;100636.94;5073326;28;20174;-73
2022/01/20 00:40:21;;;;;;;0.40;0.40;;;;;;;2.91;91.73;100645.78;5073338;28;20220;-74
2022/01/20 00:42:47;;;;;;;6.10;0.57;;;;;;;2.86;93.10;100634.09;5073259;28;20174;-74
2022/01/20 00:45:12;;;;;;;0.70;0.70;;;;;;;2.83;94.39;100635.44;5073052;28;20304;-74
2022/01/20 00:47:39;;;;;;;4.87;0.80;;;;;;;2.86;96.49;100644.91;5073543;28;20183;-74
2022/01/20 00:50:07;;;;;;;2.97;1.23;;;;;;;2.83;98.08;100635.44;5071599;28;20214;-73
2022/01/20 00:52:32;;;;;;;2.90;1.73;;;;;;;2.85;99.24;100646.78;5073050;28;20420;-73
2022/01/20 00:54:58;;;;;;;0.97;0.67;;;;;;;2.87;100.00;100644.66;5071626;28;20170;-74
2022/01/20 00:57:23;;;;;;;5.77;0.80;;;;;;;2.94;100.00;100652.56;5073109;28;20186;-74
2022/01/20 00:59:48;;;;;;;7.37;0.57;;;;;;;2.91;100.00;100664.66;5071575;28;20206;-74
2022/01/20 01:02:14;;;;;;;4.17;2.03;;;;;;;2.88;100.00;100667.84;5072654;28;20175;-74
2022/01/20 01:04:40;;;;;;;10.00;1.97;;;;;;;2.85;100.00;100662.16;5071514;28;20179;-73
2022/01/20 01:09:51;;;;;;;3.20;1.13;;;;;;;2.72;100.00;100660.69;5072748;28;20340;-74
2022/01/20 01:12:25;;;;;;;5.03;1.23;;;;;;;2.71;100.00;100656.34;5071433;28;20508;-74
2022/01/20 01:14:52;;;;;;;10.83;1.93;;;;;;;2.68;100.00;100646.09;5072523;28;20760;-73
2022/01/20 01:22:30;;;;;;;4.13;2.63;;;;;;;2.73;100.00;100658.78;5072410;28;20186;-74
2022/01/20 01:24:57;;;;;;;1.63;1.30;;;;;;;2.68;100.00;100646.91;5070964;28;20721;-73
2022/01/20 01:27:24;;;;;;;2.00;0.93;;;;;;;2.69;100.00;100656.63;5071158;28;20792;-74
2022/01/20 01:32:23;;;;;;;5.33;0.30;;;;;;;2.66;100.00;100649.03;5072323;28;20171;-74
2022/01/20 01:34:52;;;;;;;12.23;2.33;;;;;;;2.65;100.00;100652.81;5072303;28;20162;-73
2022/01/20 01:39:55;;;;;;;0.40;0.37;;;;;;;2.56;100.00;100654.31;5072519;28;20162;-74
2022/01/20 01:42:26;;;;;;;3.87;1.50;;;;;;;2.53;100.00;100640.53;5072090;28;20425;-73
2022/01/20 01:44:53;;;;;;;6.63;1.93;;;;;;;2.52;100.00;100644.28;5071978;28;20638;-74
2022/01/20 01:47:18;;;;;;;1.63;1.53;;;;;;;2.52;100.00;100642.41;5070754;28;20265;-74
2022/01/20 01:49:44;;;;;;;6.37;1.53;;;;;;;2.50;100.00;100635.66;5071629;28;20606;-73
2022/01/20 01:52:09;;;;;;;10.27;1.77;;;;;;;2.49;100.00;100655.59;5070510;28;20174;-74
2022/01/20 01:54:34;;;;;;;3.20;1.80;;;;;;;2.54;100.00;100647.53;5070554;28;20196;-74
2022/01/20 01:57:05;;;;;;;4.43;2.10;;;;;;;2.58;100.00;100654.06;5071665;28;20175;-73
2022/01/20 01:59:31;;;;;;;5.30;0.60;;;;;;;2.61;100.00;100646.28;5071902;28;20244;-73
2022/01/20 02:01:56;;;;;;;3.30;2.27;;;;;;;2.63;100.00;100656.81;5070467;28;20205;-74
2022/01/20 02:52:23;;;;;;;4.40;1.80;;;;;;;2.69;100.00;100601.84;5070773;28;20549;-74
2022/01/20 02:54:56;;;;;;;1.00;0.97;;;;;;;2.60;100.00;100604.22;5068363;28;20429;-74
2022/01/20 02:57:23;;;;;;;2.20;1.00;;;;;;;2.49;100.00;100591.69;5070444;28;20224;-74
2022/01/20 02:59:48;;;;;;;6.20;1.73;;;;;;;2.38;100.00;100588.06;5073842;28;20832;-73
2022/01/20 03:02:14;;;;;;;0.57;0.57;;;;;;;2.27;100.00;100583.63;5080817;28;20213;-74
2022/01/20 03:04:40;;;;;;;0.93;0.87;;;;;;;2.19;100.00;100554.44;5069129;28;20262;-74
2022/01/20 03:07:06;;;;;;;0.30;0.30;;;;;;;2.16;100.00;100592.66;5069099;28;20175;-74
2022/01/20 03:09:32;;;;;;;0.30;0.30;;;;;;;2.13;100.00;100581.56;5069270;28;20225;-74
2022/01/20 03:11:58;;;;;;;0.87;0.73;;;;;;;2.14;100.00;100592.09;5070609;28;20175;-73
2022/01/20 03:14:23;;;;;;;1.43;0.53;;;;;;;2.15;100.00;100596.41;5070319;28;20235;-73
2022/01/20 03:16:49;;;;;;;0.30;0.30;;;;;;;2.19;100.00;100581.41;5068860;28;20215;-74
2022/01/20 03:19:15;;;;;;;10.60;1.50;;;;;;;2.23;100.00;100576.31;5070511;28;20238;-74
2022/01/20 03:21:42;;;;;;;1.33;0.50;;;;;;;2.26;100.00;100567.72;5070590;28;20409;-74
2022/01/20 03:24:08;;;;;;;1.50;0.93;;;;;;;2.26;100.00;100567.72;5068981;28;20182;-73
2022/01/20 03:26:34;;;;;;;6.53;1.23;;;;;;;2.26;100.00;100582.00;5070156;28;20405;-74
2022/01/20 03:28:59;;;;;;;1.80;0.10;;;;;;;2.28;100.00;100581.75;5070312;28;20349;-74
2022/01/20 03:31:26;;;;;;;3.40;0.73;;;;;;;2.30;100.00;100593.06;5070400;28;20201;-73
2022/01/20 03:33:52;;;;;;;3.47;1.33;;;;;;;2.30;100.00;100599.28;5070384;28;20179;-74
2022/01/20 03:36:17;;;;;;;0.40;0.40;;;;;;;2.29;100.00;100592.25;5070060;28;20261;-74
2022/01/20 03:38:43;;;;;;;0.80;0.80;;;;;;;2.31;100.00;100586.63;5070285;28;20315;-73
2022/01/20 03:41:08;;;;;;;1.20;1.07;;;;;;;2.29;100.00;100594.16;5070265;28;20171;-74
2022/01/20 03:43:34;;;;;;;2.87;0.93;;;;;;;2.26;100.00;100595.47;5070452;28;20420;-74
2022/01/20 03:46:01;;;;;;;0.47;0.47;;;;;;;2.24;100.00;100604.88;5073658;28;20208;-74
2022/01/20 03:48:29;;;;;;;0.97;0.10;;;;;;;2.23;100.00;100622.94;5074304;28;20163;-74
2022/01/20 03:51:02;;;;;;;9.43;0.67;;;;;;;2.19;100.00;100619.13;5074066;28;20206;-74
2022/01/20 03:53:36;;;;;;;1.70;0.23;;;;;;;2.16;100.00;100614.22;5074294;28;20155;-74
2022/01/20 03:56:03;;;;;;;0.50;0.50;;;;;;;2.15;100.00;100603.69;5072650;28;20672;-74
2022/01/20 03:58:28;;;;;;;5.33;0.77;;;;;;;2.14;100.00;100610.97;5072594;28;20178;-74
2022/01/20 04:00:53;;;;;;;0.30;0.10;;;;;;;2.16;100.00;100622.31;5073988;28;20174;-74
2022/01/20 04:03:20;;;;;;;3.30;0.50;;;;;;;2.15;100.00;100623.38;5074427;28;20677;-74
2022/01/20 04:05:57;;;;;;;0.00;0.00;;;;;;;2.13;100.00;100630.88;5072347;28;20190;-74
2022/01/20 04:08:27;;;;;;;0.40;0.20;;;;;;;2.10;100.00;100615.22;5072610;28;20612;-74
2022/01/20 04:10:53;;;;;;;0.50;0.10;;;;;;;2.07;100.00;100619.25;5074108;28;20464;-73
2022/01/20 04:13:19;;;;;;;0.00;0.00;;;;;;;2.05;100.00;100615.19;5076316;28;20175;-74
2022/01/20 04:15:48;;;;;;;0.00;0.00;;;;;;;2.03;100.00;100614.63;5083821;28;20170;-74
2022/01/20 04:18:19;;;;;;;0.00;0.00;;;;;;;2.02;100.00;100634.53;5076203;28;20195;-73
2022/01/20 04:20:45;;;;;;;0.03;0.03;;;;;;;2.01;100.00;100638.28;5075072;28;20417;-73
2022/01/20 04:23:10;;;;;;;3.97;1.13;;;;;;;2.05;100.00;100639.44;5072325;28;20787;-74
2022/01/20 04:25:35;;;;;;;5.10;0.43;;;;;;;2.05;100.00;100639.44;5072437;28;20607;-74
2022/01/20 04:28:01;;;;;;;0.10;0.10;;;;;;;2.06;100.00;100633.78;5073593;28;20681;-74
2022/01/20 04:30:28;;;;;;;1.20;0.60;;;;;;;2.07;100.00;100648.06;5072150;28;20304;-73
2022/01/20 04:32:53;;;;;;;2.40;0.07;;;;;;;2.12;100.00;100668.88;5073631;28;20177;-74
2022/01/20 04:35:20;;;;;;;1.20;0.33;;;;;;;2.14;100.00;100669.44;5070967;28;20455;-73
2022/01/20 04:37:48;;;;;;;0.80;0.43;;;;;;;2.16;100.00;100665.41;5078763;28;20419;-74
2022/01/20 04:40:14;;;;;;;2.37;0.50;;;;;;;2.15;100.00;100652.19;5083856;28;20268;-74
2022/01/20 04:42:42;;;;;;;1.80;0.50;;;;;;;2.12;100.00;100660.78;5075508;28;20190;-74
2022/01/20 04:45:09;;;;;;;0.97;0.57;;;;;;;2.08;100.00;100655.09;5073148;28;20422;-73
2022/01/20 04:48:02;;;;;;;1.70;0.93;;;;;;;2.05;100.00;100661.00;5073406;28;20425;-74
2022/01/20 04:58:39;;;;;;;0.77;0.50;;;;;;;1.90;100.00;100691.22;5073020;28;20267;-74
2022/01/20 05:01:05;;;;;;;0.93;0.10;;;;;;;1.91;100.00;100694.75;5072972;28;20937;-73
2022/01/20 05:03:30;;;;;;;0.60;0.20;;;;;;;1.89;100.00;100678.81;5073049;28;20784;-74
2022/01/20 05:05:56;;;;;;;1.67;0.20;;;;;;;1.87;100.00;100680.13;5071391;28;20623;-74
2022/01/20 05:08:23;;;;;;;1.30;0.00;;;;;;;1.86;100.00;100690.06;5071584;28;20219;-74
2022/01/20 05:10:50;;;;;;;0.40;0.40;;;;;;;1.85;100.00;100719.97;5072164;28;20202;-74
2022/01/20 05:13:24;;;;;;;1.60;0.20;;;;;;;1.83;100.00;100708.63;5072773;28;20409;-74
2022/01/20 05:15:50;;;;;;;0.27;0.20;;;;;;;1.81;100.00;100718.81;5071413;28;20465;-74
2022/01/20 05:18:15;;;;;;;0.47;0.43;;;;;;;1.80;100.00;100693.78;5071499;28;20178;-74
2022/01/20 05:20:40;;;;;;;0.30;0.30;;;;;;;1.79;100.00;100727.97;5071502;28;20174;-74
2022/01/20 05:23:06;;;;;;;0.20;0.20;;;;;;;1.75;100.00;100724.16;5072417;28;20197;-74
2022/01/20 05:25:31;;;;;;;1.03;0.43;;;;;;;1.72;100.00;100732.69;5072467;28;20178;-74
2022/01/20 05:27:57;;;;;;;2.33;0.10;;;;;;;1.69;100.00;100738.56;5071198;28;20202;-74
2022/01/20 05:30:22;;;;;;;2.43;1.33;;;;;;;1.68;100.00;100731.56;5072789;28;20202;-74
2022/01/20 05:32:47;;;;;;;3.30;0.67;;;;;;;1.69;100.00;100743.97;5072396;28;20202;-73
2022/01/20 05:35:13;;;;;;;1.13;1.03;;;;;;;1.69;100.00;100743.16;5072188;28;20682;-73
2022/01/20 05:37:38;;;;;;;8.93;1.40;;;;;;;1.68;100.00;100753.09;5072143;28;20171;-74
2022/01/20 05:40:05;;;;;;;1.93;0.50;;;;;;;1.68;100.00;100757.69;5070899;28;20723;-74
2022/01/20 05:42:30;;;;;;;2.13;0.37;;;;;;;1.68;100.00;100763.88;5072137;28;20166;-73
2022/01/20 05:44:55;;;;;;;2.17;0.20;;;;;;;1.71;100.00;100778.72;5072031;28;20559;-74
2022/01/20 05:47:27;;;;;;;0.27;0.27;;;;;;;1.70;100.00;100777.09;5072060;28;20535;-74
2022/01/20 05:49:53;;;;;;;0.97;0.20;;;;;;;1.71;100.00;100782.22;5071849;28;20195;-74
2022/01/20 05:52:19;;;;;;;0.10;0.00;;;;;;;1.72;100.00;100783.06;5070717;28;20192;-73
2022/01/20 05:54:45;;;;;;;0.70;0.50;;;;;;;1.71;100.00;100782.22;5071880;28;20538;-74
2022/01/20 05:57:11;;;;;;;9.30;0.93;;;;;;;1.70;100.00;100777.09;5072022;28;20193;-73
2022/01/20 05:59:37;;;;;;;0.10;0.10;;;;;;;1.67;100.00;100789.19;5070514;28;20437;-74
2022/01/20 06:02:11;;;;;;;3.97;0.77;;;;;;;1.69;100.00;100807.78;5070515;28;20183;-73
2022/01/20 06:04:36;;;;;;;9.13;1.50;;;;;;;1.64;100.00;100795.06;5071652;28;20573;-74
2022/01/20 06:07:02;;;;;;;3.80;1.33;;;;;;;1.41;100.00;100809.44;5070217;28;20175;-74
2022/01/20 06:09:27;;;;;;;13.60;1.70;;;;;;;1.05;100.00;100816.06;5070728;28;20626;-74
2022/01/20 06:11:53;;;;;;;3.30;0.60;;;;;;;0.85;100.00;100823.69;5070334;28;20182;-74
2022/01/20 06:14:18;;;;;;;2.73;0.37;;;;;;;0.79;100.00;100817.41;5071470;28;20422;-74
2022/01/20 06:16:43;;;;;;;0.60;0.53;;;;;;;0.63;100.00;100834.28;5071292;28;20166;-74
2022/01/20 06:19:09;;;;;;;1.20;0.93;;;;;;;0.40;100.00;100835.09;5071817;28;20401;-74
2022/01/20 06:21:34;;;;;;;6.30;0.43;;;;;;;0.33;100.00;100845.16;5070184;28;20186;-74
2022/01/20 06:24:00;;;;;;;11.10;0.63;;;;;;;0.23;100.00;100842.25;5069857;28;20209;-74
2022/01/20 06:26:25;;;;;;;4.27;0.83;;;;;;;0.14;100.00;100817.56;5071263;28;20201;-73
2022/01/20 06:28:50;;;;;;;0.87;0.47;;;;;;;0.04;100.00;100825.41;5070077;28;20201;-74
2022/01/20 06:31:16;;;;;;;0.77;0.33;;;;;;;0.04;100.00;100835.34;5069856;28;20210;-74
2022/01/20 06:33:42;;;;;;;1.20;0.37;;;;;;;0.08;100.00;100823.91;5071829;28;20618;-74
2022/01/20 06:36:07;;;;;;;0.70;0.50;;;;;;;0.12;100.00;100840.34;5070991;28;20220;-74
2022/01/20 06:38:33;;;;;;;0.23;0.10;;;;;;;0.15;100.00;100854.16;5071224;28;20205;-74
2022/01/20 06:40:59;;;;;;;0.00;0.00;;;;;;;0.15;100.00;100861.41;5069885;28;20188;-75
2022/01/20 06:43:24;;;;;;;1.20;0.67;;;;;;;0.12;100.00;100867.22;5070930;28;20171;-74
2022/01/20 06:45:50;;;;;;;0.30;0.00;;;;;;;0.10;100.00;100880.88;5070903;28;20178;-74
2022/01/20 06:48:15;;;;;;;4.77;0.60;;;;;;;0.10;100.00;100874.69;5069398;28;20424;-74
2022/01/20 06:50:40;;;;;;;1.60;1.10;;;;;;;0.12;100.00;100881.47;5069213;28;20209;-75
2022/01/20 06:53:06;;;;;;;5.00;0.40;;;;;;;0.14;100.00;100882.03;5070983;28;20174;-74
2022/01/20 06:55:31;;;;;;;3.57;0.53;;;;;;;0.18;100.00;100896.69;5070699;28;20641;-74
2022/01/20 06:57:57;;;;;;;5.50;0.57;;;;;;;0.20;100.00;100907.19;5070800;28;20177;-74
2022/01/20 07:00:24;;;;;;;1.20;0.13;;;;;;;0.23;100.00;100928.22;5070739;28;20186;-74
2022/01/20 07:02:51;;;;;;;0.20;0.20;;;;;;;0.28;100.00;100910.34;5070779;28;20186;-74
2022/01/20 07:05:19;;;;;;;1.07;0.30;;;;;;;0.37;100.00;100908.13;5070549;28;20566;-74
2022/01/20 07:07:44;;;;;;;4.27;0.40;;;;;;;0.39;100.00;100927.53;5070615;28;20461;-74
2022/01/20 07:10:11;;;;;;;0.00;0.00;;;;;;;0.39;100.00;100932.91;5070691;28;20500;-74
2022/01/20 07:12:38;;;;;;;1.40;0.40;;;;;;;0.44;100.00;100929.53;5069208;28;20178;-74
2022/01/20 07:15:04;;;;;;;3.10;0.90;;;;;;;0.47;100.00;100937.13;5070352;28;20425;-74
2022/01/20 07:17:29;;;;;;;13.60;0.80;;;;;;;0.49;100.00;100951.16;5070659;28;20417;-74
2022/01/20 07:19:55;;;;;;;0.93;0.33;;;;;;;0.52;100.00;100938.06;5070180;28;20424;-74
2022/01/20 07:22:20;;;;;;;1.80;0.63;;;;;;;0.53;100.00;100955.00;5070610;28;20249;-74
2022/01/20 07:24:47;;;;;;;1.80;1.70;;;;;;;0.54;100.00;100951.28;5070308;28;20231;-74
2022/01/20 07:27:13;;;;;;;4.40;0.53;;;;;;;0.55;100.00;100967.16;5070266;28;20650;-74
2022/01/20 07:29:39;;;;;;;7.07;0.87;;;;;;;0.55;100.00;100964.47;5070274;28;20421;-74
2022/01/20 07:32:06;;;;;;;14.13;1.20;;;;;;;0.52;100.00;100970.31;5069219;28;20519;-74
2022/01/20 07:34:32;;;;;;;4.73;1.23;;;;;;;0.49;100.00;100980.72;5070346;28;20170;-74
2022/01/20 07:36:58;;;;;;;1.03;0.77;;;;;;;0.49;100.00;100975.34;5068992;28;20424;-74
2022/01/20 07:39:23;;;;;;;1.70;1.17;;;;;;;0.48;100.00;100977.22;5069039;28;20421;-73
2022/01/20 07:41:48;;;;;;;0.47;0.47;;;;;;;0.46;100.00;100960.50;5069084;28;20277;-74
2022/01/20 07:44:17;;;;;;;0.00;0.00;;;;;;;0.45;100.00;100969.63;5070336;28;20178;-74
2022/01/20 07:46:43;;;;;;;0.47;0.47;;;;;;;0.49;100.00;100978.84;5070284;28;20416;-74
2022/01/20 07:49:09;;;;;;;2.33;1.20;;;;;;;0.53;100.00;100979.19;5070434;28;20482;-74
2022/01/20 07:51:34;;;;;;;16.50;2.50;;;;;;;0.55;100.00;100969.84;5069827;28;20472;-73
2022/01/20 07:53:59;;;;;;;0.20;0.20;;;;;;;0.57;100.00;100973.13;5070090;28;20179;-74
2022/01/20 07:56:25;;;;;;;7.27;1.50;;;;;;;0.56;100.00;100976.03;5068598;28;20243;-74
2022/01/20 07:58:50;;;;;;;8.83;0.80;;;;;;;0.55;100.00;100971.72;5070223;28;20190;-73
2022/01/20 08:01:16;;;;;;;2.80;0.57;;;;;;;0.52;100.00;100985.63;5068956;28;20225;-74
2022/01/20 08:03:41;;;;;;;1.63;0.73;;;;;;;0.47;100.00;100990.91;5068957;28;20179;-74
2022/01/20 08:06:07;;;;;;;1.67;1.10;;;;;;;0.42;100.00;100988.88;5070021;28;20175;-74
2022/01/20 08:08:32;;;;;;;0.87;0.87;;;;;;;0.40;100.00;100999.03;5070238;28;20182;-74
2022/01/20 08:10:57;;;;;;;1.90;1.43;;;;;;;0.40;100.00;101008.97;5070148;28;20797;-73
2022/01/20 08:13:23;;;;;;;4.07;1.70;;;;;;;0.37;100.00;101004.88;5070136;28;20186;-74
2022/01/20 08:15:48;;;;;;;0.30;0.27;;;;;;;0.40;100.00;101007.09;5070004;28;20516;-74
2022/01/20 08:18:14;;;;;;;4.37;1.67;;;;;;;0.39;100.00;101018.09;5070117;28;20563;-74
2022/01/20 08:20:39;;;;;;;1.93;0.40;;;;;;;0.45;100.00;101017.19;5068595;28;20591;-74
2022/01/20 08:23:05;;;;;;;0.43;0.17;;;;;;;0.48;100.00;101028.28;5069715;28;20244;-75
2022/01/20 08:25:31;;;;;;;0.40;0.40;;;;;;;0.55;100.00;101020.94;5068405;28;20209;-74
2022/01/20 08:27:56;;;;;;;1.10;1.10;;;;;;;0.58;100.00;101027.72;5081977;28;20627;-75
2022/01/20 08:30:24;;;;;;;0.10;0.10;;;;;;;0.59;100.00;101032.06;5069777;28;20323;-74
2022/01/20 08:32:51;;;;;;;2.73;1.23;;;;;;;0.61;100.00;101038.03;5073028;28;20166;-74
2022/01/20 08:35:19;;;;;;;1.60;1.50;;;;;;;0.66;99.74;101032.75;5073260;28;20485;-73
2022/01/20 08:37:45;;;;;;;4.67;0.43;;;;;;;0.71;99.08;101034.75;5073391;28;20745;-74
2022/01/20 08:40:16;;;;;;;3.47;0.80;;;;;;;0.76;97.77;101041.09;5073492;28;20926;-74
2022/01/20 08:42:43;;;;;;;0.50;0.50;;;;;;;0.79;97.39;101037.09;5072004;28;20417;-74
2022/01/20 08:45:11;;;;;;;0.37;0.27;;;;;;;0.78;97.01;101027.41;5071655;28;20428;-74
2022/01/20 08:47:36;;;;;;;3.00;0.77;;;;;;;0.81;96.71;101027.75;5073643;28;20437;-74
2022/01/20 08:50:05;;;;;;;15.20;0.83;;;;;;;0.84;97.13;101026.47;5071725;28;20456;-74
2022/01/20 08:52:30;;;;;;;0.63;0.27;;;;;;;0.83;97.78;101031.03;5073129;28;20177;-74
2022/01/20 08:54:58;;;;;;;0.80;0.80;;;;;;;0.84;97.65;101034.53;5071534;28;20421;-73
2022/01/20 08:57:24;;;;;;;1.60;1.40;;;;;;;0.82;97.27;101025.88;5073065;28;20236;-74
2022/01/20 08:59:50;;;;;;;0.43;0.23;;;;;;;0.85;97.17;101028.09;5073129;28;20417;-75
2022/01/20 09:02:15;;;;;;;0.10;0.10;;;;;;;0.85;97.16;101033.47;5071616;28;20406;-74
2022/01/20 09:04:41;;;;;;;0.33;0.30;;;;;;;0.87;97.48;101037.59;5072998;28;20170;-74
2022/01/20 09:07:06;;;;;;;0.30;0.30;;;;;;;0.91;96.59;101035.25;5071501;28;20634;-76
2022/01/20 09:09:39;;;;;;;1.77;1.43;;;;;;;0.92;96.16;101028.81;5072949;28;20194;-74
2022/01/20 09:17:34;;;;;;;1.07;0.57;;;;;;;0.91;95.86;101032.56;5072926;28;20400;-74
2022/01/20 09:20:00;;;;;;;0.77;0.63;;;;;;;0.89;96.00;101030.09;5072762;28;20432;-74
2022/01/20 09:22:28;;;;;;;1.33;0.33;;;;;;;0.92;96.10;101033.38;5071406;28;20399;-74
2022/01/20 09:24:54;;;;;;;7.90;0.43;;;;;;;0.94;95.82;101029.41;5072282;28;20217;-74
2022/01/20 09:27:19;;;;;;;1.50;0.40;;;;;;;1.01;96.21;101030.09;5072679;28;20455;-74
2022/01/20 09:29:46;;;;;;;1.13;0.70;;;;;;;1.08;94.79;101016.53;5071140;28;20202;-75
2022/01/20 09:32:13;;;;;;;2.43;0.40;;;;;;;1.13;95.08;101027.41;5072550;28;20175;-74
2022/01/20 09:34:39;;;;;;;1.43;0.33;;;;;;;1.17;94.94;101039.38;5072453;28;20428;-75
2022/01/20 09:37:05;;;;;;;0.40;0.30;;;;;;;1.15;93.04;101036.88;5072386;28;20413;-75
2022/01/20 09:39:30;;;;;;;0.00;0.00;;;;;;;1.22;92.76;101060.19;5072503;28;20425;-74
2022/01/20 09:41:57;;;;;;;7.97;1.93;;;;;;;1.32;93.15;101061.25;5070764;28;20243;-75
2022/01/20 09:44:23;;;;;;;0.50;0.50;;;;;;;1.43;92.14;101060.38;5070956;28;20213;-74
2022/01/20 09:46:48;;;;;;;0.50;0.30;;;;;;;1.45;91.75;101058.31;5070838;28;20462;-74
2022/01/20 09:49:14;;;;;;;0.10;0.10;;;;;;;1.42;90.64;101058.75;5070898;28;20274;-74
2022/01/20 09:51:41;;;;;;;1.37;0.93;;;;;;;1.35;90.66;101065.31;5070649;28;20236;-75
2022/01/20 09:54:07;;;;;;;3.93;1.43;;;;;;;1.25;91.38;101059.69;5072092;28;20270;-74
2022/01/20 09:56:33;;;;;;;1.53;0.50;;;;;;;1.11;91.94;101059.94;5071637;28;20512;-77
2022/01/20 09:58:59;;;;;;;0.60;0.50;;;;;;;0.97;93.97;101079.22;5072668;28;20209;-74
2022/01/20 10:01:45;;;;;;;1.23;0.73;;;;;;;0.88;97.51;101063.44;5072084;28;20444;-74
2022/01/20 10:04:30;;;;;;;0.40;0.40;;;;;;;0.83;99.22;101065.97;5071752;28;20187;-74
2022/01/20 10:07:01;;;;;;;2.03;1.80;;;;;;;0.83;100.00;101074.06;5071814;28;20416;-76
2022/01/20 10:09:33;;;;;;;0.60;0.60;;;;;;;0.88;99.75;101078.75;5071846;28;20835;-74
2022/01/20 10:11:58;;;;;;;0.00;0.00;;;;;;;0.98;97.75;101068.22;5070302;28;20412;-74
2022/01/20 10:14:24;;;;;;;0.57;0.40;;;;;;;1.05;97.48;101046.59;5071674;28;20170;-75
2022/01/20 10:16:49;;;;;;;2.47;1.23;;;;;;;1.10;95.61;101068.25;5071915;28;20179;-74
2022/01/20 10:19:27;;;;;;;1.27;0.90;;;;;;;1.15;94.56;101074.56;5071441;28;20174;-74
2022/01/20 10:21:52;;;;;;;0.20;0.20;;;;;;;1.17;92.81;101068.97;5068657;28;20178;-78
2022/01/20 10:24:18;;;;;;;3.20;1.50;;;;;;;1.18;92.15;101074.09;5083659;28;20449;-75
2022/01/20 10:26:44;;;;;;;1.60;0.63;;;;;;;1.19;92.93;101078.44;5079215;28;20182;-77
2022/01/20 10:29:15;;;;;;;1.33;0.77;;;;;;;1.20;91.65;101073.88;5051545;28;20206;-76
2022/01/20 10:31:44;;;;;;;3.13;0.83;;;;;;;1.22;91.93;101089.78;5061424;28;20621;-77
2022/01/20 10:34:18;;;;;;;0.53;0.30;;;;;;;1.22;92.06;101084.41;5070122;28;20425;-78
2022/01/20 10:36:53;;;;;;;0.50;0.50;;;;;;;1.19;92.94;101075.75;5070026;28;20430;-78
2022/01/20 10:39:31;;;;;;;2.13;0.50;;;;;;;1.18;93.97;101081.38;5069961;28;20443;-73
2022/01/20 10:41:59;;;;;;;0.30;0.30;;;;;;;1.19;93.87;101088.38;5071804;28;20420;-74
2022/01/20 10:44:24;;;;;;;1.93;1.13;;;;;;;1.23;93.89;101088.72;5069965;28;20504;-75
2022/01/20 10:46:53;;;;;;;2.47;1.47;;;;;;;1.23;93.98;101099.50;5070978;28;20507;-78
2022/01/20 10:49:21;;;;;;;0.73;0.73;;;;;;;1.22;93.67;101074.44;5069972;28;20557;-75
2022/01/20 10:52:17;;;;;;;1.60;1.13;;;;;;;1.23;94.45;101072.56;5070954;28;20818;-74
2022/01/20 10:54:46;;;;;;;2.70;0.70;;;;;;;1.25;95.13;101073.97;5064995;28;20825;-73
2022/01/20 10:57:15;;;;;;;0.43;0.30;;;;;;;1.34;95.23;101077.16;5087726;28;20423;-73
2022/01/20 11:00:08;;;;;;;0.40;0.27;;;;;;;1.47;94.33;101074.22;5063712;28;20436;-73
2022/01/20 11:02:35;;;;;;;0.00;0.00;;;;;;;1.61;94.12;101074.78;5081529;28;20923;-73
2022/01/20 11:05:00;;;;;;;5.83;0.60;;;;;;;1.78;92.26;101086.47;5076262;28;20236;-73
2022/01/20 11:07:28;;;;;;;0.50;0.30;;;;;;;1.90;91.34;101094.53;5069902;28;20420;-73
2022/01/20 11:10:05;;;;;;;0.70;0.30;;;;;;;1.92;92.24;101092.41;5069880;28;20658;-73
2022/01/20 11:12:31;;;;;;;0.70;0.70;;;;;;;1.74;91.28;101099.59;5071270;28;20428;-73
2022/01/20 11:15:00;;;;;;;2.87;0.33;;;;;;;1.60;91.74;101110.84;5069744;28;20935;-73
2022/01/20 11:17:28;;;;;;;0.60;0.57;;;;;;;1.54;94.22;101093.75;5075611;28;20448;-73
2022/01/20 11:19:57;;;;;;;0.40;0.40;;;;;;;1.33;96.07;101051.28;5080825;28;20448;-73
2022/01/20 11:22:25;;;;;;;1.50;0.20;;;;;;;1.23;98.96;101084.16;5075558;28;20453;-73
2022/01/20 11:25:06;;;;;;;0.00;0.00;;;;;;;1.05;100.00;101079.72;5071467;28;20999;-73
2022/01/20 11:27:37;;;;;;;0.30;0.30;;;;;;;0.88;100.00;101076.06;5070645;28;20444;-73
2022/01/20 11:30:16;;;;;;;0.07;0.00;;;;;;;0.78;100.00;101068.56;5070547;28;20452;-73
2022/01/20 11:32:42;;;;;;;0.20;0.20;;;;;;;0.68;100.00;101056.72;5070645;28;20420;-74
2022/01/20 11:35:10;;;;;;;0.20;0.10;;;;;;;0.58;100.00;101062.69;5069160;28;20416;-74
2022/01/20 11:37:39;;;;;;;0.00;0.00;;;;;;;0.51;100.00;101072.69;5070519;28;20186;-73
2022/01/20 11:40:08;;;;;;;0.10;0.10;;;;;;;0.31;100.00;101051.50;5070529;28;20425;-73
2022/01/20 11:42:33;;;;;;;0.70;0.43;;;;;;;0.23;100.00;101062.56;5069357;28;20425;-73
2022/01/20 11:44:59;;;;;;;1.20;1.00;;;;;;;0.12;100.00;101061.44;5068936;28;20425;-73
2022/01/20 11:47:32;;;;;;;12.97;2.10;;;;;;;0.11;100.00;101056.31;5070511;28;20213;-74
2022/01/20 11:49:58;;;;;;;1.63;0.23;;;;;;;0.12;100.00;101045.34;5070461;28;20198;-73
2022/01/20 11:52:25;;;;;;;7.50;1.13;;;;;;;0.12;100.00;101056.06;5070553;28;20417;-73
2022/01/20 11:54:51;;;;;;;0.27;0.27;;;;;;;0.13;100.00;101046.16;5068964;28;21086;-73
2022/01/20 11:57:19;;;;;;;4.07;0.30;;;;;;;0.19;100.00;101050.63;5070354;28;20453;-73
2022/01/20 11:59:48;;;;;;;0.00;0.00;;;;;;;0.34;100.00;101037.59;5070379;28;20588;-73
2022/01/20 12:02:36;;;;;;;4.53;1.80;;;;;;;0.51;100.00;101037.75;5070211;28;20439;-73
2022/01/20 12:05:18;;;;;;;8.80;1.13;;;;;;;0.71;100.00;101048.19;5069012;28;20872;-73
2022/01/20 12:07:44;;;;;;;0.10;0.10;;;;;;;0.92;100.00;101049.53;5072941;28;20417;-73
2022/01/20 12:10:11;;;;;;;0.20;0.20;;;;;;;0.92;100.00;101034.19;5073722;28;20467;-73
2022/01/20 12:12:39;;;;;;;2.07;0.80;;;;;;;0.91;100.00;101026.38;5074161;28;20175;-73
2022/01/20 12:15:15;;;;;;;1.13;1.03;;;;;;;0.86;100.00;101025.16;5073785;28;20429;-73
2022/01/20 12:17:51;;;;;;;1.07;0.47;;;;;;;1.05;100.00;101042.03;5072710;28;20797;-74
2022/01/20 12:20:17;;;;;;;0.13;0.10;;;;;;;1.22;100.00;101039.47;5073583;28;20420;-73
2022/01/20 12:22:44;;;;;;;0.57;0.57;;;;;;;1.31;100.00;101029.19;5065501;28;20947;-74
2022/01/20 12:25:27;;;;;;;1.30;1.27;;;;;;;1.40;100.00;101044.72;5085683;28;20182;-73
2022/01/20 12:28:09;;;;;;;1.03;0.30;;;;;;;1.54;100.00;101034.50;5053809;28;20898;-73
2022/01/20 12:30:40;;;;;;;5.20;0.17;;;;;;;1.60;100.00;101028.19;5052385;28;20980;-73
2022/01/20 12:33:11;;;;;;;0.70;0.70;;;;;;;1.71;100.00;101035.41;5053519;28;20191;-73
2022/01/20 12:35:40;;;;;;;0.10;0.10;;;;;;;1.84;99.90;101036.19;5053072;28;20815;-73
2022/01/20 12:38:26;;;;;;;0.00;0.00;;;;;;;1.94;98.10;101036.41;5053633;28;20417;-73
2022/01/20 12:41:09;;;;;;;1.60;1.30;;;;;;;2.01;96.44;101039.75;5051980;28;20507;-67
2022/01/20 12:43:46;;;;;;;0.77;0.10;;;;;;;2.10;94.44;101046.41;5054005;28;20418;-73
2022/01/20 12:46:13;;;;;;;0.63;0.20;;;;;;;2.14;91.68;101042.19;5053190;28;20179;-73
2022/01/20 12:48:58;;;;;;;0.63;0.63;;;;;;;2.12;90.76;101036.22;5053148;28;20501;-73
2022/01/20 12:51:42;;;;;;;0.20;0.10;;;;;;;1.96;89.73;101032.41;5051854;28;20333;-73
2022/01/20 12:54:12;;;;;;;0.00;0.00;;;;;;;1.75;91.29;101051.94;5053188;28;20421;-73
2022/01/20 12:56:41;;;;;;;0.10;0.10;;;;;;;1.29;97.63;101060.88;5051821;28;20422;-73
2022/01/20 12:59:07;;;;;;;0.67;0.40;;;;;;;0.67;100.00;101028.19;5053134;28;20417;-73
2022/01/20 13:01:45;;;;;;;0.43;0.23;;;;;;;0.37;100.00;101023.69;5053245;28;20413;-74
2022/01/20 13:04:13;;;;;;;0.40;0.20;;;;;;;0.31;100.00;101023.81;5053140;28;20417;-73
2022/01/20 13:06:46;;;;;;;0.20;0.20;;;;;;;0.32;100.00;101020.06;5051798;28;20418;-73
2022/01/20 13:09:13;;;;;;;1.77;0.90;;;;;;;0.38;100.00;101025.34;5051676;28;20838;-74
2022/01/20 13:11:59;;;;;;;1.23;1.00;;;;;;;0.38;100.00;101019.97;5052605;28;20473;-74